createdAt,value
2023-03-19T00:03:49.321Z,13.80
2023-03-19T00:09:11.849Z,13.82
2023-03-19T00:14:33.709Z,13.52
2023-03-19T00:19:55.589Z,13.93
2023-03-19T00:25:17.511Z,14.65
2023-03-19T00:30:39.494Z,12.88
2023-03-19T00:36:01.408Z,15.07
2023-03-19T00:41:23.549Z,13.60
2023-03-19T00:46:46.083Z,13.95
2023-03-19T00:52:08.021Z,13.70
2023-03-19T00:57:29.923Z,14.45
2023-03-19T01:02:51.805Z,13.43
2023-03-19T01:08:13.803Z,13.02
2023-03-19T01:13:35.923Z,14.40
2023-03-19T01:18:57.859Z,12.95
2023-03-19T01:24:19.736Z,13.55
2023-03-19T01:29:41.585Z,13.50
2023-03-19T01:35:03.594Z,13.32
2023-03-19T01:40:25.445Z,12.73
2023-03-19T01:45:51.384Z,12.45
2023-03-19T01:51:17.776Z,12.35
2023-03-19T01:56:41.928Z,12.20
2023-03-19T02:02:13.937Z,13.68
2023-03-19T02:07:38.850Z,13.32
2023-03-19T02:13:00.744Z,12.77
2023-03-19T02:18:25.009Z,11.68
2023-03-19T02:23:58.372Z,13.70
2023-03-19T02:29:20.377Z,13.05
2023-03-19T02:34:43.743Z,11.77
2023-03-19T02:40:19.668Z,13.23
2023-03-19T02:45:41.787Z,12.95
2023-03-19T02:51:05.033Z,12.85
2023-03-19T02:56:26.872Z,12.43
2023-03-19T03:01:48.862Z,13.68
2023-03-19T03:07:11.040Z,12.93
2023-03-19T03:12:32.902Z,12.55
2023-03-19T03:17:54.843Z,13.30
2023-03-19T03:23:16.814Z,12.45
2023-03-19T03:28:38.647Z,14.77
2023-03-19T03:34:01.259Z,12.52
2023-03-19T03:39:23.153Z,13.43
2023-03-19T03:44:45.001Z,13.05
2023-03-19T03:50:07.284Z,12.63
2023-03-19T03:55:30.391Z,12.55
2023-03-19T04:00:52.245Z,12.95
2023-03-19T04:06:17.193Z,12.48
2023-03-19T04:11:41.055Z,12.88
2023-03-19T04:17:03.103Z,13.13
2023-03-19T04:22:25.051Z,12.27
2023-03-19T04:27:46.924Z,13.02
2023-03-19T04:33:09.594Z,12.27
2023-03-19T04:38:31.433Z,12.90
2023-03-19T04:43:53.293Z,12.30
2023-03-19T04:49:15.200Z,12.38
2023-03-19T04:54:37.138Z,12.25
2023-03-19T04:59:59.015Z,12.55
2023-03-19T05:05:20.862Z,13.45
2023-03-19T05:10:42.704Z,12.40
2023-03-19T05:16:04.919Z,13.18
2023-03-19T05:21:26.897Z,12.05
2023-03-19T05:26:48.818Z,12.88
2023-03-19T05:32:10.757Z,12.35
2023-03-19T05:37:32.715Z,11.93
2023-03-19T05:42:54.631Z,13.38
2023-03-19T05:48:16.539Z,12.75
2023-03-19T05:53:38.382Z,13.20
2023-03-19T05:59:00.245Z,12.38
2023-03-19T06:04:22.155Z,13.25
2023-03-19T06:09:44.085Z,13.23
2023-03-19T06:15:06.481Z,13.77
2023-03-19T06:20:28.345Z,13.88
2023-03-19T06:25:50.226Z,13.38
2023-03-19T06:31:12.233Z,14.45
2023-03-19T06:36:34.212Z,14.50
2023-03-19T06:41:56.172Z,14.00
2023-03-19T06:47:18.039Z,13.85
2023-03-19T06:52:40.936Z,13.80
2023-03-19T06:58:03.286Z,13.63
2023-03-19T07:03:25.139Z,14.18
2023-03-19T07:08:47.147Z,15.00
2023-03-19T07:14:09.604Z,13.63
2023-03-19T07:19:31.421Z,15.25
2023-03-19T07:24:53.327Z,14.10
2023-03-19T07:30:15.718Z,15.68
2023-03-19T07:35:37.664Z,15.95
2023-03-19T07:41:02.680Z,15.75
2023-03-19T07:46:24.887Z,14.00
2023-03-19T07:51:46.748Z,15.50
2023-03-19T07:57:08.795Z,15.27
2023-03-19T08:02:30.737Z,15.02
2023-03-19T08:07:52.688Z,14.43
2023-03-19T08:13:14.648Z,15.13
2023-03-19T08:18:36.577Z,14.32
2023-03-19T08:23:58.758Z,14.73
2023-03-19T08:29:20.701Z,13.13
2023-03-19T08:34:42.643Z,12.40
2023-03-19T08:40:04.995Z,12.57
2023-03-19T08:45:26.851Z,12.90
2023-03-19T08:51:00.656Z,12.32
2023-03-19T08:56:22.565Z,12.07
2023-03-19T09:01:44.500Z,11.77
2023-03-19T09:07:06.460Z,11.98
2023-03-19T09:12:28.405Z,12.63
2023-03-19T09:17:50.385Z,12.73
2023-03-19T09:23:12.245Z,12.52
2023-03-19T09:28:34.951Z,11.93
2023-03-19T09:33:56.975Z,10.70
2023-03-19T09:39:18.872Z,11.60
2023-03-19T09:44:43.621Z,11.63
2023-03-19T09:50:15.943Z,11.80
2023-03-19T09:55:49.825Z,10.88
2023-03-19T10:01:40.707Z,10.45
2023-03-19T10:07:14.534Z,9.70
2023-03-19T10:12:52.610Z,10.13
2023-03-19T10:18:19.894Z,9.02
2023-03-19T10:23:41.686Z,9.07
2023-03-19T10:29:11.280Z,7.65
2023-03-19T10:34:35.046Z,8.20
2023-03-19T10:39:59.055Z,8.20
2023-03-19T10:45:30.820Z,8.80
2023-03-19T10:51:05.532Z,8.80
2023-03-19T10:56:29.830Z,7.72
2023-03-19T11:02:02.984Z,7.97
2023-03-19T11:07:27.109Z,8.07
2023-03-19T11:12:55.333Z,8.10
2023-03-19T11:18:25.072Z,6.68
2023-03-19T11:23:52.404Z,17.10
2023-03-19T11:29:14.281Z,7.43
2023-03-19T11:34:59.225Z,7.15
2023-03-19T11:40:41.690Z,6.97
2023-03-19T11:46:25.308Z,7.95
2023-03-19T11:52:04.179Z,7.50
2023-03-19T11:58:03.189Z,7.65
2023-03-19T12:03:52.425Z,7.80
2023-03-19T12:09:34.255Z,8.05
2023-03-19T12:15:18.944Z,8.43
2023-03-19T12:20:56.706Z,7.75
2023-03-19T12:26:40.351Z,6.85
2023-03-19T12:32:20.844Z,7.50
2023-03-19T12:37:54.404Z,8.82
2023-03-19T12:43:21.724Z,7.95
2023-03-19T12:49:21.029Z,7.93
2023-03-19T12:54:48.802Z,8.02
2023-03-19T13:00:13.791Z,8.52
2023-03-19T13:05:47.681Z,8.57
2023-03-19T13:11:15.531Z,7.25
2023-03-19T13:16:57.638Z,7.20
2023-03-19T13:22:30.611Z,7.90
2023-03-19T13:27:53.990Z,7.03
2023-03-19T13:33:22.272Z,8.10
2023-03-19T13:38:48.891Z,7.55
2023-03-19T13:44:32.661Z,8.90
2023-03-19T13:50:06.893Z,7.55
2023-03-19T13:55:32.579Z,7.53
2023-03-19T14:00:59.019Z,7.13
2023-03-19T14:06:31.702Z,7.60
2023-03-19T14:11:53.601Z,6.93
2023-03-19T14:17:19.855Z,7.07
2023-03-19T14:22:57.218Z,6.82
2023-03-19T14:28:24.132Z,7.03
2023-03-19T14:33:53.944Z,7.20
2023-03-19T14:39:23.373Z,7.13
2023-03-19T14:45:17.757Z,6.80
2023-03-19T14:50:53.995Z,6.82
2023-03-19T14:56:21.199Z,7.43
2023-03-19T15:01:50.464Z,7.22
2023-03-19T15:07:22.826Z,7.20
2023-03-19T15:13:11.383Z,6.75
2023-03-19T15:18:35.332Z,7.00
2023-03-19T15:23:57.784Z,7.95
2023-03-19T15:29:31.160Z,7.13
2023-03-19T15:34:56.689Z,8.02
2023-03-19T15:40:22.640Z,8.18
2023-03-19T15:45:52.437Z,8.67
2023-03-19T15:51:15.851Z,8.27
2023-03-19T15:56:38.404Z,8.18
2023-03-19T16:02:02.152Z,7.72
2023-03-19T16:07:41.361Z,8.18
2023-03-19T16:13:20.120Z,8.82
2023-03-19T16:18:53.503Z,7.78
2023-03-19T16:24:25.015Z,8.23
2023-03-19T16:29:57.380Z,8.25
2023-03-19T16:35:19.952Z,8.82
2023-03-19T16:40:43.056Z,9.82
2023-03-19T16:46:06.992Z,12.35
2023-03-19T16:51:28.864Z,11.43
2023-03-19T16:56:50.714Z,12.48
2023-03-19T17:02:17.777Z,11.93
2023-03-19T17:07:39.717Z,15.00
2023-03-19T17:13:01.865Z,13.35
2023-03-19T17:18:26.280Z,10.18
2023-03-19T17:23:48.282Z,9.55
2023-03-19T17:29:10.353Z,15.88
2023-03-19T17:34:32.234Z,13.20
2023-03-19T17:39:54.048Z,14.48
2023-03-19T17:45:17.363Z,11.80
2023-03-19T17:50:39.227Z,14.68
2023-03-19T17:56:01.082Z,16.33
2023-03-19T18:01:27.208Z,15.73
2023-03-19T18:06:53.046Z,14.75
2023-03-19T18:12:14.883Z,17.90
2023-03-19T18:17:36.957Z,16.05
2023-03-19T18:22:58.850Z,15.45
2023-03-19T18:28:20.705Z,16.13
2023-03-19T18:33:49.136Z,15.60
2023-03-19T18:39:13.649Z,17.20
2023-03-19T18:44:35.535Z,22.58
2023-03-19T18:49:57.467Z,21.75
2023-03-19T18:55:20.736Z,16.13
2023-03-19T19:00:42.922Z,16.52
2023-03-19T19:06:05.006Z,17.98
2023-03-19T19:11:27.371Z,19.02
2023-03-19T19:16:50.181Z,22.23
2023-03-19T19:22:16.897Z,21.40
2023-03-19T19:33:00.663Z,23.23
2023-03-19T19:38:22.727Z,23.98
2023-03-19T19:43:46.051Z,26.80
2023-03-19T19:49:14.426Z,23.45
2023-03-19T19:54:36.288Z,22.25
2023-03-19T19:59:58.131Z,22.65
2023-03-19T20:05:23.270Z,24.40
2023-03-19T20:10:46.156Z,24.10
2023-03-19T20:16:11.008Z,23.92
2023-03-19T20:21:33.345Z,23.30
2023-03-19T20:26:55.221Z,23.83
2023-03-19T20:32:31.094Z,22.88
2023-03-19T20:37:54.876Z,23.27
2023-03-19T20:43:28.390Z,23.75
2023-03-19T20:48:50.577Z,25.00
2023-03-19T20:54:12.445Z,24.75
2023-03-19T20:59:34.339Z,24.95
2023-03-19T21:04:56.185Z,22.13
2023-03-19T21:10:24.287Z,21.40
2023-03-19T21:15:46.625Z,23.92
2023-03-19T21:21:10.556Z,23.30
2023-03-19T21:26:37.072Z,24.05
2023-03-19T21:31:58.935Z,25.00
2023-03-19T21:37:20.902Z,24.38
2023-03-19T21:42:43.074Z,24.73
2023-03-19T21:48:17.195Z,25.00
2023-03-19T21:53:39.063Z,24.63
2023-03-19T21:59:04.146Z,24.63
2023-03-19T22:04:26.006Z,22.55
2023-03-19T22:09:47.929Z,22.33
2023-03-19T22:15:30.089Z,24.40
2023-03-19T22:20:52.720Z,23.33
2023-03-19T22:26:34.801Z,23.38
2023-03-19T22:31:56.964Z,22.75
2023-03-19T22:37:30.178Z,25.05
2023-03-19T22:42:52.021Z,23.10
2023-03-19T22:48:15.267Z,24.33
2023-03-19T22:53:37.663Z,23.83
2023-03-19T22:58:59.449Z,23.30
2023-03-19T23:04:24.522Z,24.80
2023-03-19T23:09:46.401Z,25.17
2023-03-19T23:15:08.857Z,24.98
2023-03-19T23:20:32.059Z,25.90
2023-03-19T23:25:54.468Z,25.77
2023-03-19T23:31:16.421Z,26.38
2023-03-19T23:36:38.297Z,26.98
2023-03-19T23:42:00.441Z,28.15
2023-03-19T23:47:22.340Z,26.90
2023-03-19T23:52:44.229Z,26.27
2023-03-19T23:58:06.073Z,29.25
